Mount Vernon, WA

5:37 PM PDT on August 27, 2014 (GMT -0700)
Maddox Creek | Change Station
CLOSE
Current Station
Personal Weather Station
Location: Mount Vernon, WA
Elevation: 404 ft
Nearby Weather Stations

Elev 404 ft 48.41 °N, 122.30 °W | Updated 25 seconds ago

Clear
Clear
78.8 °F
Feels Like 80 °F
N
0.0
Wind Variable Wind from WSW
Gusts 0.0 mph

Today
High -- | Low -- °F
--% Chance of Precip.
Yesterday
High -- | Low -- °F
Precip. -- in
6:19 AM 8:00 PM
Waxing Crescent, 5% visible
Pressure 30.02 in
Visibility 10.0 miles
Clouds Few 9000 ft
Heat Index 80 °F
Dew Point 61 °F
Humidity 55%
Rainfall 0.00 in
Snow Depth Not available.
UV 2 out of 12
Pollen 3.10 out of 12
PM2.5 Good
Flu Activity Not available.
METAR KBVS 280015Z AUTO 22007KT 040V040 10SM FEW090 26/16 A3002 RMK A01 P000

More Conditions Fewer Conditions

Pressure 30.02 in
Visibility 10.0 miles
Clouds Few 9000 ft
Heat Index 80 °F
Dew Point 61 °F
Humidity 55%
Rainfall 0.00 in
Snow Depth Not available.
UV 2 out of 12
Pollen 3.10 out of 12
PM2.5 Good
Flu Activity Not available.
METAR KBVS 280015Z AUTO 22007KT 040V040 10SM FEW090 26/16 A3002 RMK A01 P000

More Conditions Fewer Conditions

10-Day Weather Forecast

Almanac

Astronomy

Aug. 27, 2014 Rise Set
Actual Time 6:19 AM PDT 8:00 PM PDT
Civil Twilight 5:46 AM PDT 8:33 PM PDT
Nautical Twilight 5:06 AM PDT 9:13 PM PDT
Astronomical Twilight 4:22 AM PDT 9:57 PM PDT
Moon 8:34 AM PDT (8/27) 8:40 PM PDT (8/27)
Length of Visible Light 14h 46m
Length of Day
13h 40m
Tomorrow will be 3m 23s shorter.
Waxing Crescent, 5% of the Moon is Illuminated
Today
Waxing Crescent
Sep 2
First Quarter
Sep 8
Full
Sep 15
Last Quarter
Sep 24
New

Today's Extremes

State Highs State Lows

Community

WunderPhotos

Upload Photos

1,747,836 photos uploaded!

Nearby

Air Quality

  Air Quality AQ Index Pollutant
Yesterday Good
PM2.5
Yesterday Good
OZONE
Current Good
PM2.5
Wednesday Good
OZONE
Wednesday Good
PM2.5
Thursday Good
OZONE
Thursday Good
PM2.5
Friday Good
OZONE
Friday Good
PM2.5
Saturday Good
OZONE
Saturday Good
PM2.5

Snow Depth

Station Depth Elevation
Dungeness 0 in 4100 ft
Swamp Creek 0 in 4000 ft
Rainy Pass 0 in 4780 ft
Harts Pass 0 in 6500 ft
Sasse Ridge 0 in 4200 ft

Earthquake Activity

City Distance Mag. Time & Date
No recent earthquake activity has been reported nearby.
Minimum magnitude displayed is 2.5.

Coastal Water Temperatures

Place Temperature
Cherry Point, WA 61.0 °F
Port Townsend, WA 53.1 °F
Friday Harbor, WA 53.1 °F
Port Angeles, WA 54.0 °F

Nearby Weather Stations